sensor_id;sensor_type;location;lat;lon;timestamp;pressure;altitude;pressure_sealevel;temperature;humidity
56944;BME280;42848;42.524;12.052;2022-08-19T00:00:14;96060.84;;;24.15;100.00
56944;BME280;42848;42.524;12.052;2022-08-19T00:02:41;96104.03;;;23.93;100.00
56944;BME280;42848;42.524;12.052;2022-08-19T00:05:09;96083.81;;;24.16;100.00
56944;BME280;42848;42.524;12.052;2022-08-19T00:07:36;96060.44;;;24.17;100.00
56944;BME280;42848;42.524;12.052;2022-08-19T00:10:03;96061.22;;;24.17;100.00
56944;BME280;42848;42.524;12.052;2022-08-19T00:12:29;96067.75;;;24.27;100.00
56944;BME280;42848;42.524;12.052;2022-08-19T00:14:55;96083.66;;;24.23;100.00
56944;BME280;42848;42.524;12.052;2022-08-19T00:17:21;96089.34;;;23.96;100.00
56944;BME280;42848;42.524;12.052;2022-08-19T00:19:47;96073.31;;;23.60;100.00
56944;BME280;42848;42.524;12.052;2022-08-19T00:22:13;96054.19;;;23.66;100.00
56944;BME280;42848;42.524;12.052;2022-08-19T00:24:40;96048.66;;;23.89;100.00
56944;BME280;42848;42.524;12.052;2022-08-19T00:27:06;96043.06;;;24.12;100.00
56944;BME280;42848;42.524;12.052;2022-08-19T00:29:32;96050.66;;;24.08;100.00
56944;BME280;42848;42.524;12.052;2022-08-19T00:31:58;96072.00;;;24.11;100.00
56944;BME280;42848;42.524;12.052;2022-08-19T00:34:25;96059.91;;;24.02;100.00
56944;BME280;42848;42.524;12.052;2022-08-19T00:36:53;96035.81;;;23.99;100.00
56944;BME280;42848;42.524;12.052;2022-08-19T00:39:19;96029.59;;;23.91;100.00
56944;BME280;42848;42.524;12.052;2022-08-19T00:41:47;96027.91;;;23.74;100.00
56944;BME280;42848;42.524;12.052;2022-08-19T00:44:21;96027.47;;;23.99;100.00
56944;BME280;42848;42.524;12.052;2022-08-19T00:46:48;96020.63;;;23.83;100.00
56944;BME280;42848;42.524;12.052;2022-08-19T00:49:24;96034.28;;;23.94;100.00
56944;BME280;42848;42.524;12.052;2022-08-19T00:51:56;96034.66;;;23.96;100.00
56944;BME280;42848;42.524;12.052;2022-08-19T00:54:23;96030.25;;;23.99;100.00
56944;BME280;42848;42.524;12.052;2022-08-19T00:56:50;96032.53;;;24.04;100.00
56944;BME280;42848;42.524;12.052;2022-08-19T00:59:17;96040.72;;;24.11;100.00
56944;BME280;42848;42.524;12.052;2022-08-19T01:01:44;96042.13;;;23.99;100.00
56944;BME280;42848;42.524;12.052;2022-08-19T01:04:11;96033.16;;;24.11;100.00
56944;BME280;42848;42.524;12.052;2022-08-19T01:06:39;96036.69;;;23.92;100.00
56944;BME280;42848;42.524;12.052;2022-08-19T01:09:06;96043.38;;;23.95;100.00
56944;BME280;42848;42.524;12.052;2022-08-19T01:11:35;96039.81;;;23.94;100.00
56944;BME280;42848;42.524;12.052;2022-08-19T01:14:03;96043.94;;;23.86;100.00
56944;BME280;42848;42.524;12.052;2022-08-19T01:16:29;96042.31;;;23.65;100.00
56944;BME280;42848;42.524;12.052;2022-08-19T01:18:56;96056.66;;;23.83;100.00
56944;BME280;42848;42.524;12.052;2022-08-19T01:21:31;96059.94;;;23.51;100.00
56944;BME280;42848;42.524;12.052;2022-08-19T01:23:59;96057.91;;;23.55;100.00
56944;BME280;42848;42.524;12.052;2022-08-19T01:26:25;96055.44;;;22.80;100.00
56944;BME280;42848;42.524;12.052;2022-08-19T01:28:56;96050.81;;;23.01;100.00
56944;BME280;42848;42.524;12.052;2022-08-19T01:31:25;96055.41;;;23.11;100.00
56944;BME280;42848;42.524;12.052;2022-08-19T01:33:52;96056.09;;;23.18;100.00
56944;BME280;42848;42.524;12.052;2022-08-19T01:38:49;96062.94;;;23.37;100.00
56944;BME280;42848;42.524;12.052;2022-08-19T01:41:16;96055.47;;;23.58;100.00
56944;BME280;42848;42.524;12.052;2022-08-19T01:43:42;96044.28;;;23.68;100.00
56944;BME280;42848;42.524;12.052;2022-08-19T01:46:08;96051.00;;;23.67;100.00
56944;BME280;42848;42.524;12.052;2022-08-19T01:48:39;96066.59;;;23.81;100.00
56944;BME280;42848;42.524;12.052;2022-08-19T01:51:06;96062.56;;;23.62;100.00
56944;BME280;42848;42.524;12.052;2022-08-19T01:53:32;96070.22;;;23.27;100.00
56944;BME280;42848;42.524;12.052;2022-08-19T01:55:59;96062.59;;;23.59;100.00
56944;BME280;42848;42.524;12.052;2022-08-19T01:58:33;96052.06;;;23.50;100.00
56944;BME280;42848;42.524;12.052;2022-08-19T02:01:02;96061.78;;;23.62;100.00
56944;BME280;42848;42.524;12.052;2022-08-19T02:03:28;96068.03;;;23.66;100.00
56944;BME280;42848;42.524;12.052;2022-08-19T02:05:58;96059.44;;;23.60;100.00
56944;BME280;42848;42.524;12.052;2022-08-19T02:08:26;96066.22;;;23.55;100.00
56944;BME280;42848;42.524;12.052;2022-08-19T02:10:53;96063.84;;;23.54;100.00
56944;BME280;42848;42.524;12.052;2022-08-19T02:13:19;96061.78;;;23.35;100.00
56944;BME280;42848;42.524;12.052;2022-08-19T02:15:45;96062.34;;;23.22;100.00
56944;BME280;42848;42.524;12.052;2022-08-19T02:18:12;96073.31;;;23.33;100.00
56944;BME280;42848;42.524;12.052;2022-08-19T02:20:39;96070.66;;;23.22;100.00
56944;BME280;42848;42.524;12.052;2022-08-19T02:23:05;96063.09;;;23.53;100.00
56944;BME280;42848;42.524;12.052;2022-08-19T02:25:31;96072.28;;;23.20;100.00
56944;BME280;42848;42.524;12.052;2022-08-19T02:27:57;96076.63;;;23.21;100.00
56944;BME280;42848;42.524;12.052;2022-08-19T02:30:23;96068.91;;;23.09;100.00
56944;BME280;42848;42.524;12.052;2022-08-19T02:32:50;96073.75;;;23.01;100.00
56944;BME280;42848;42.524;12.052;2022-08-19T02:35:16;96081.91;;;22.81;100.00
56944;BME280;42848;42.524;12.052;2022-08-19T02:37:43;96087.31;;;22.92;100.00
56944;BME280;42848;42.524;12.052;2022-08-19T02:40:28;96084.34;;;22.76;100.00
56944;BME280;42848;42.524;12.052;2022-08-19T02:42:54;96091.84;;;22.75;100.00
56944;BME280;42848;42.524;12.052;2022-08-19T02:45:20;96105.91;;;22.57;100.00
56944;BME280;42848;42.524;12.052;2022-08-19T02:47:46;96112.66;;;22.90;100.00
56944;BME280;42848;42.524;12.052;2022-08-19T02:50:12;96132.66;;;23.02;100.00
56944;BME280;42848;42.524;12.052;2022-08-19T02:52:38;96134.25;;;23.03;100.00
56944;BME280;42848;42.524;12.052;2022-08-19T02:55:05;96129.72;;;23.16;100.00
56944;BME280;42848;42.524;12.052;2022-08-19T02:57:31;96142.28;;;23.24;100.00
56944;BME280;42848;42.524;12.052;2022-08-19T02:59:58;96140.66;;;23.26;100.00
56944;BME280;42848;42.524;12.052;2022-08-19T03:02:23;96124.88;;;23.23;100.00
56944;BME280;42848;42.524;12.052;2022-08-19T03:04:49;96126.75;;;23.30;100.00
56944;BME280;42848;42.524;12.052;2022-08-19T03:07:17;96139.69;;;23.10;100.00
56944;BME280;42848;42.524;12.052;2022-08-19T03:09:44;96134.56;;;23.08;100.00
56944;BME280;42848;42.524;12.052;2022-08-19T03:12:10;96136.13;;;23.09;100.00
56944;BME280;42848;42.524;12.052;2022-08-19T03:14:37;96134.78;;;23.21;100.00
56944;BME280;42848;42.524;12.052;2022-08-19T03:17:03;96139.03;;;23.29;100.00
56944;BME280;42848;42.524;12.052;2022-08-19T03:19:30;96151.59;;;23.07;100.00
56944;BME280;42848;42.524;12.052;2022-08-19T03:21:57;96139.59;;;23.17;100.00
56944;BME280;42848;42.524;12.052;2022-08-19T03:24:24;96137.66;;;23.14;100.00
56944;BME280;42848;42.524;12.052;2022-08-19T03:26:52;96136.13;;;23.09;100.00
56944;BME280;42848;42.524;12.052;2022-08-19T03:29:21;96141.25;;;23.11;100.00
56944;BME280;42848;42.524;12.052;2022-08-19T03:31:46;96145.31;;;23.03;100.00
56944;BME280;42848;42.524;12.052;2022-08-19T03:34:18;96138.69;;;22.96;100.00
56944;BME280;42848;42.524;12.052;2022-08-19T03:36:44;96135.41;;;23.05;100.00
56944;BME280;42848;42.524;12.052;2022-08-19T03:39:11;96143.09;;;22.90;100.00
56944;BME280;42848;42.524;12.052;2022-08-19T03:41:38;96156.06;;;22.97;100.00
56944;BME280;42848;42.524;12.052;2022-08-19T03:44:05;96145.00;;;22.97;100.00
56944;BME280;42848;42.524;12.052;2022-08-19T03:46:32;96146.66;;;22.91;100.00
56944;BME280;42848;42.524;12.052;2022-08-19T03:49:00;96148.84;;;23.07;100.00
56944;BME280;42848;42.524;12.052;2022-08-19T03:51:32;96134.84;;;22.83;100.00
56944;BME280;42848;42.524;12.052;2022-08-19T03:53:59;96141.81;;;22.98;100.00
56944;BME280;42848;42.524;12.052;2022-08-19T03:56:27;96149.38;;;22.94;100.00
56944;BME280;42848;42.524;12.052;2022-08-19T03:58:55;96140.34;;;22.90;100.00
56944;BME280;42848;42.524;12.052;2022-08-19T04:01:23;96145.19;;;22.79;100.00
56944;BME280;42848;42.524;12.052;2022-08-19T04:03:49;96150.53;;;22.97;100.00
56944;BME280;42848;42.524;12.052;2022-08-19T04:06:26;96154.91;;;22.60;100.00
56944;BME280;42848;42.524;12.052;2022-08-19T04:08:54;96160.19;;;22.44;100.00
56944;BME280;42848;42.524;12.052;2022-08-19T04:11:23;96145.72;;;22.67;100.00
56944;BME280;42848;42.524;12.052;2022-08-19T04:13:51;96143.78;;;22.64;100.00
56944;BME280;42848;42.524;12.052;2022-08-19T04:16:18;96137.66;;;22.46;100.00
56944;BME280;42848;42.524;12.052;2022-08-19T04:18:45;96128.31;;;22.70;100.00
56944;BME280;42848;42.524;12.052;2022-08-19T04:21:23;96120.41;;;22.68;100.00
56944;BME280;42848;42.524;12.052;2022-08-19T04:23:49;96120.72;;;22.74;100.00
56944;BME280;42848;42.524;12.052;2022-08-19T04:26:17;96129.41;;;22.76;100.00
56944;BME280;42848;42.524;12.052;2022-08-19T04:28:44;96146.78;;;22.77;100.00
56944;BME280;42848;42.524;12.052;2022-08-19T04:31:15;96145.13;;;22.83;100.00
56944;BME280;42848;42.524;12.052;2022-08-19T04:33:41;96150.69;;;22.86;100.00
56944;BME280;42848;42.524;12.052;2022-08-19T04:36:08;96149.47;;;22.87;100.00
56944;BME280;42848;42.524;12.052;2022-08-19T04:38:35;96137.13;;;22.58;100.00
56944;BME280;42848;42.524;12.052;2022-08-19T04:41:03;96127.44;;;22.39;100.00
56944;BME280;42848;42.524;12.052;2022-08-19T04:43:47;96111.84;;;22.56;100.00
56944;BME280;42848;42.524;12.052;2022-08-19T04:46:14;96122.19;;;22.14;100.00
56944;BME280;42848;42.524;12.052;2022-08-19T04:48:40;96118.19;;;22.19;100.00
56944;BME280;42848;42.524;12.052;2022-08-19T04:51:09;96110.31;;;22.17;100.00
56944;BME280;42848;42.524;12.052;2022-08-19T04:53:37;96112.97;;;21.83;100.00
56944;BME280;42848;42.524;12.052;2022-08-19T04:56:11;96092.22;;;22.09;100.00
56944;BME280;42848;42.524;12.052;2022-08-19T04:58:39;96088.06;;;22.28;100.00
56944;BME280;42848;42.524;12.052;2022-08-19T05:01:07;96073.88;;;22.26;100.00
56944;BME280;42848;42.524;12.052;2022-08-19T05:03:35;96063.75;;;22.50;100.00
56944;BME280;42848;42.524;12.052;2022-08-19T05:06:09;96071.97;;;22.53;100.00
56944;BME280;42848;42.524;12.052;2022-08-19T05:08:36;96079.94;;;22.48;100.00
56944;BME280;42848;42.524;12.052;2022-08-19T05:11:12;96075.66;;;22.77;100.00
56944;BME280;42848;42.524;12.052;2022-08-19T05:13:38;96072.41;;;22.82;100.00
56944;BME280;42848;42.524;12.052;2022-08-19T05:16:04;96076.31;;;22.88;100.00
56944;BME280;42848;42.524;12.052;2022-08-19T05:18:30;96068.44;;;22.83;100.00
56944;BME280;42848;42.524;12.052;2022-08-19T05:21:16;96060.50;;;22.89;100.00
56944;BME280;42848;42.524;12.052;2022-08-19T05:24:01;96065.31;;;22.51;100.00
56944;BME280;42848;42.524;12.052;2022-08-19T05:26:27;96070.34;;;22.59;100.00
56944;BME280;42848;42.524;12.052;2022-08-19T05:28:54;96072.72;;;22.23;100.00
56944;BME280;42848;42.524;12.052;2022-08-19T05:31:20;96064.38;;;22.27;100.00
56944;BME280;42848;42.524;12.052;2022-08-19T05:33:47;96065.66;;;22.53;100.00
56944;BME280;42848;42.524;12.052;2022-08-19T05:36:13;96056.25;;;22.47;100.00
56944;BME280;42848;42.524;12.052;2022-08-19T05:38:39;96042.69;;;22.59;100.00
56944;BME280;42848;42.524;12.052;2022-08-19T05:41:09;96062.97;;;22.76;100.00
56944;BME280;42848;42.524;12.052;2022-08-19T05:43:35;96065.59;;;22.60;100.00
56944;BME280;42848;42.524;12.052;2022-08-19T05:46:03;96059.34;;;22.52;100.00
56944;BME280;42848;42.524;12.052;2022-08-19T05:48:34;96054.41;;;22.36;100.00
56944;BME280;42848;42.524;12.052;2022-08-19T05:51:07;96062.06;;;22.56;100.00
56944;BME280;42848;42.524;12.052;2022-08-19T05:53:34;96074.28;;;22.58;100.00
56944;BME280;42848;42.524;12.052;2022-08-19T05:56:12;96084.31;;;22.79;100.00
56944;BME280;42848;42.524;12.052;2022-08-19T05:58:39;96092.97;;;22.51;100.00
56944;BME280;42848;42.524;12.052;2022-08-19T06:01:11;96083.88;;;22.84;100.00
56944;BME280;42848;42.524;12.052;2022-08-19T06:03:37;96084.25;;;22.83;100.00
56944;BME280;42848;42.524;12.052;2022-08-19T06:06:04;96081.06;;;22.88;100.00
56944;BME280;42848;42.524;12.052;2022-08-19T06:08:30;96092.84;;;22.95;100.00
56944;BME280;42848;42.524;12.052;2022-08-19T06:10:56;96082.66;;;22.85;100.00
56944;BME280;42848;42.524;12.052;2022-08-19T06:13:22;96089.78;;;22.83;100.00
56944;BME280;42848;42.524;12.052;2022-08-19T06:15:49;96087.44;;;23.12;100.00
56944;BME280;42848;42.524;12.052;2022-08-19T06:18:15;96097.22;;;23.20;100.00
56944;BME280;42848;42.524;12.052;2022-08-19T06:20:41;96099.63;;;23.18;100.00
56944;BME280;42848;42.524;12.052;2022-08-19T06:23:08;96107.84;;;23.25;100.00
56944;BME280;42848;42.524;12.052;2022-08-19T06:25:34;96111.31;;;23.29;100.00
56944;BME280;42848;42.524;12.052;2022-08-19T06:28:00;96109.03;;;23.51;100.00
56944;BME280;42848;42.524;12.052;2022-08-19T06:30:26;96109.59;;;23.39;100.00
56944;BME280;42848;42.524;12.052;2022-08-19T06:32:52;96111.50;;;23.18;100.00
56944;BME280;42848;42.524;12.052;2022-08-19T06:35:18;96119.88;;;23.42;100.00
56944;BME280;42848;42.524;12.052;2022-08-19T06:37:43;96112.06;;;23.33;100.00
56944;BME280;42848;42.524;12.052;2022-08-19T06:40:10;96133.31;;;23.13;100.00
56944;BME280;42848;42.524;12.052;2022-08-19T06:42:36;96135.13;;;23.26;100.00
56944;BME280;42848;42.524;12.052;2022-08-19T06:45:05;96147.50;;;22.88;100.00
56944;BME280;42848;42.524;12.052;2022-08-19T06:47:31;96151.91;;;23.12;100.00
56944;BME280;42848;42.524;12.052;2022-08-19T06:50:00;96155.75;;;23.49;100.00
56944;BME280;42848;42.524;12.052;2022-08-19T06:52:32;96146.81;;;23.38;100.00
56944;BME280;42848;42.524;12.052;2022-08-19T06:54:59;96141.34;;;23.34;100.00
56944;BME280;42848;42.524;12.052;2022-08-19T06:57:25;96148.25;;;23.19;100.00
56944;BME280;42848;42.524;12.052;2022-08-19T06:59:52;96143.16;;;23.44;100.00
56944;BME280;42848;42.524;12.052;2022-08-19T07:02:19;96135.97;;;23.77;100.00
56944;BME280;42848;42.524;12.052;2022-08-19T07:04:45;96144.69;;;23.76;100.00
56944;BME280;42848;42.524;12.052;2022-08-19T07:07:14;96130.09;;;23.95;100.00
56944;BME280;42848;42.524;12.052;2022-08-19T07:09:43;96134.81;;;23.98;100.00
56944;BME280;42848;42.524;12.052;2022-08-19T07:12:11;96139.53;;;24.01;100.00
56944;BME280;42848;42.524;12.052;2022-08-19T07:14:39;96129.69;;;23.73;100.00
56944;BME280;42848;42.524;12.052;2022-08-19T07:17:09;96140.84;;;23.39;100.00
56944;BME280;42848;42.524;12.052;2022-08-19T07:19:35;96149.09;;;23.73;100.00
56944;BME280;42848;42.524;12.052;2022-08-19T07:22:04;96150.22;;;23.76;100.00
56944;BME280;42848;42.524;12.052;2022-08-19T07:24:32;96137.69;;;23.68;100.00
56944;BME280;42848;42.524;12.052;2022-08-19T07:27:00;96137.22;;;23.73;100.00
56944;BME280;42848;42.524;12.052;2022-08-19T07:29:33;96140.78;;;23.73;100.00
56944;BME280;42848;42.524;12.052;2022-08-19T07:32:00;96137.13;;;23.49;100.00
56944;BME280;42848;42.524;12.052;2022-08-19T07:34:28;96132.94;;;23.68;100.00
56944;BME280;42848;42.524;12.052;2022-08-19T07:36:55;96133.59;;;23.76;100.00
56944;BME280;42848;42.524;12.052;2022-08-19T07:39:27;96140.94;;;23.63;100.00
56944;BME280;42848;42.524;12.052;2022-08-19T07:41:54;96144.28;;;23.50;100.00
56944;BME280;42848;42.524;12.052;2022-08-19T07:44:21;96139.63;;;23.71;100.00
56944;BME280;42848;42.524;12.052;2022-08-19T07:46:51;96140.00;;;23.73;100.00
56944;BME280;42848;42.524;12.052;2022-08-19T07:49:18;96153.63;;;23.87;100.00
56944;BME280;42848;42.524;12.052;2022-08-19T07:51:47;96153.22;;;23.62;100.00
56944;BME280;42848;42.524;12.052;2022-08-19T07:54:13;96148.47;;;23.62;100.00
56944;BME280;42848;42.524;12.052;2022-08-19T07:56:39;96138.91;;;23.90;100.00
56944;BME280;42848;42.524;12.052;2022-08-19T07:59:05;96128.91;;;23.73;100.00
56944;BME280;42848;42.524;12.052;2022-08-19T08:01:31;96137.69;;;23.68;100.00
56944;BME280;42848;42.524;12.052;2022-08-19T08:03:57;96130.44;;;23.77;100.00
56944;BME280;42848;42.524;12.052;2022-08-19T08:06:42;96136.88;;;23.71;100.00
56944;BME280;42848;42.524;12.052;2022-08-19T08:09:36;96137.81;;;23.57;100.00
56944;BME280;42848;42.524;12.052;2022-08-19T08:12:06;96130.56;;;23.67;100.00
56944;BME280;42848;42.524;12.052;2022-08-19T08:14:37;96128.66;;;23.64;100.00
56944;BME280;42848;42.524;12.052;2022-08-19T08:17:05;96138.25;;;23.82;100.00
56944;BME280;42848;42.524;12.052;2022-08-19T08:19:31;96130.97;;;23.92;100.00
56944;BME280;42848;42.524;12.052;2022-08-19T08:21:59;96148.97;;;23.80;100.00
56944;BME280;42848;42.524;12.052;2022-08-19T08:24:26;96148.06;;;23.64;100.00
56944;BME280;42848;42.524;12.052;2022-08-19T08:26:53;96155.28;;;23.54;100.00
56944;BME280;42848;42.524;12.052;2022-08-19T08:29:21;96169.91;;;24.08;100.00
56944;BME280;42848;42.524;12.052;2022-08-19T08:31:47;96178.78;;;23.73;100.00
56944;BME280;42848;42.524;12.052;2022-08-19T08:34:13;96183.81;;;23.81;100.00
56944;BME280;42848;42.524;12.052;2022-08-19T08:36:44;96192.91;;;23.82;100.00
56944;BME280;42848;42.524;12.052;2022-08-19T08:39:19;96189.19;;;23.92;100.00
56944;BME280;42848;42.524;12.052;2022-08-19T08:47:03;96190.47;;;23.61;100.00
56944;BME280;42848;42.524;12.052;2022-08-19T08:52:06;96189.78;;;23.80;100.00
56944;BME280;42848;42.524;12.052;2022-08-19T08:54:40;96192.03;;;23.62;100.00
56944;BME280;42848;42.524;12.052;2022-08-19T09:00:03;96195.09;;;23.94;100.00
56944;BME280;42848;42.524;12.052;2022-08-19T09:02:30;96189.44;;;24.01;100.00
56944;BME280;42848;42.524;12.052;2022-08-19T09:04:56;96188.59;;;24.04;100.00
56944;BME280;42848;42.524;12.052;2022-08-19T09:10:38;96207.22;;;24.27;100.00
56944;BME280;42848;42.524;12.052;2022-08-19T09:15:47;96217.38;;;24.37;100.00
56944;BME280;42848;42.524;12.052;2022-08-19T09:18:15;96213.94;;;24.53;100.00
56944;BME280;42848;42.524;12.052;2022-08-19T09:20:42;96209.09;;;24.57;100.00
56944;BME280;42848;42.524;12.052;2022-08-19T09:23:08;96222.63;;;24.55;100.00
56944;BME280;42848;42.524;12.052;2022-08-19T09:25:34;96212.97;;;24.17;100.00
56944;BME280;42848;42.524;12.052;2022-08-19T09:28:01;96219.84;;;24.55;100.00
56944;BME280;42848;42.524;12.052;2022-08-19T09:30:34;96227.66;;;24.84;100.00
56944;BME280;42848;42.524;12.052;2022-08-19T09:33:00;96226.06;;;25.26;100.00
56944;BME280;42848;42.524;12.052;2022-08-19T09:35:28;96223.34;;;25.03;100.00
56944;BME280;42848;42.524;12.052;2022-08-19T09:37:55;96216.97;;;24.82;100.00
56944;BME280;42848;42.524;12.052;2022-08-19T09:40:22;96224.44;;;24.65;100.00
56944;BME280;42848;42.524;12.052;2022-08-19T09:42:48;96217.31;;;24.41;100.00
56944;BME280;42848;42.524;12.052;2022-08-19T09:45:16;96219.22;;;24.67;100.00
56944;BME280;42848;42.524;12.052;2022-08-19T09:47:43;96222.41;;;24.46;100.00
56944;BME280;42848;42.524;12.052;2022-08-19T09:50:10;96237.00;;;24.00;100.00
56944;BME280;42848;42.524;12.052;2022-08-19T09:52:37;96244.97;;;23.67;100.00
56944;BME280;42848;42.524;12.052;2022-08-19T09:55:08;96242.53;;;23.42;100.00
56944;BME280;42848;42.524;12.052;2022-08-19T09:57:34;96253.91;;;23.48;100.00
56944;BME280;42848;42.524;12.052;2022-08-19T10:00:01;96255.97;;;23.44;100.00
56944;BME280;42848;42.524;12.052;2022-08-19T10:02:26;96250.84;;;23.42;100.00
56944;BME280;42848;42.524;12.052;2022-08-19T10:04:52;96238.94;;;23.11;100.00
56944;BME280;42848;42.524;12.052;2022-08-19T10:07:37;96233.53;;;23.35;100.00
56944;BME280;42848;42.524;12.052;2022-08-19T10:10:04;96232.66;;;23.72;100.00
56944;BME280;42848;42.524;12.052;2022-08-19T10:12:31;96236.06;;;23.83;100.00
56944;BME280;42848;42.524;12.052;2022-08-19T10:15:01;96235.09;;;24.20;100.00
56944;BME280;42848;42.524;12.052;2022-08-19T10:17:27;96234.53;;;24.05;100.00
56944;BME280;42848;42.524;12.052;2022-08-19T10:19:54;96221.38;;;24.09;100.00
56944;BME280;42848;42.524;12.052;2022-08-19T10:22:19;96221.53;;;24.26;100.00
56944;BME280;42848;42.524;12.052;2022-08-19T10:24:48;96225.25;;;24.43;100.00
56944;BME280;42848;42.524;12.052;2022-08-19T10:27:15;96224.19;;;24.56;100.00
56944;BME280;42848;42.524;12.052;2022-08-19T10:29:40;96214.66;;;24.57;100.00
56944;BME280;42848;42.524;12.052;2022-08-19T10:32:07;96219.22;;;24.67;100.00
56944;BME280;42848;42.524;12.052;2022-08-19T10:34:36;96224.53;;;24.58;100.00
56944;BME280;42848;42.524;12.052;2022-08-19T10:37:03;96220.41;;;24.47;100.00
56944;BME280;42848;42.524;12.052;2022-08-19T10:39:32;96214.66;;;24.57;100.00
56944;BME280;42848;42.524;12.052;2022-08-19T10:41:58;96224.69;;;24.51;100.00
56944;BME280;42848;42.524;12.052;2022-08-19T10:44:25;96223.09;;;24.74;100.00
56944;BME280;42848;42.524;12.052;2022-08-19T10:46:51;96219.72;;;24.62;100.00
56944;BME280;42848;42.524;12.052;2022-08-19T10:49:17;96228.88;;;24.59;100.00
56944;BME280;42848;42.524;12.052;2022-08-19T10:51:44;96222.19;;;24.57;100.00
56944;BME280;42848;42.524;12.052;2022-08-19T10:54:28;96229.50;;;24.47;100.00
56944;BME280;42848;42.524;12.052;2022-08-19T10:57:13;96234.59;;;24.52;100.00
56944;BME280;42848;42.524;12.052;2022-08-19T10:59:39;96234.59;;;24.52;100.00
56944;BME280;42848;42.524;12.052;2022-08-19T11:02:08;96238.94;;;24.53;100.00
56944;BME280;42848;42.524;12.052;2022-08-19T11:04:39;96228.88;;;24.59;100.00
56944;BME280;42848;42.524;12.052;2022-08-19T11:07:06;96224.66;;;24.75;100.00
56944;BME280;42848;42.524;12.052;2022-08-19T11:09:38;96209.78;;;24.85;100.00
56944;BME280;42848;42.524;12.052;2022-08-19T11:12:04;96214.84;;;24.90;100.00
56944;BME280;42848;42.524;12.052;2022-08-19T11:14:30;96220.94;;;24.61;100.00
56944;BME280;42848;42.524;12.052;2022-08-19T11:16:58;96222.19;;;24.80;100.00
56944;BME280;42848;42.524;12.052;2022-08-19T11:19:23;96209.78;;;24.85;100.00
56944;BME280;42848;42.524;12.052;2022-08-19T11:21:51;96215.41;;;24.61;100.00
56944;BME280;42848;42.524;12.052;2022-08-19T11:24:19;96227.59;;;24.87;100.00
56944;BME280;42848;42.524;12.052;2022-08-19T11:26:46;96225.31;;;24.82;100.00
56944;BME280;42848;42.524;12.052;2022-08-19T11:29:15;96225.22;;;24.86;100.00
56944;BME280;42848;42.524;12.052;2022-08-19T11:31:44;96225.84;;;24.97;100.00
56944;BME280;42848;42.524;12.052;2022-08-19T11:34:13;96227.38;;;24.78;100.00
56944;BME280;42848;42.524;12.052;2022-08-19T11:36:43;96233.34;;;24.77;100.00
56944;BME280;42848;42.524;12.052;2022-08-19T11:39:11;96240.09;;;24.32;100.00
56944;BME280;42848;42.524;12.052;2022-08-19T11:41:37;96241.00;;;23.95;100.00
56944;BME280;42848;42.524;12.052;2022-08-19T11:44:03;96235.94;;;23.90;100.00
56944;BME280;42848;42.524;12.052;2022-08-19T11:46:30;96248.97;;;23.93;100.00
56944;BME280;42848;42.524;12.052;2022-08-19T11:48:57;96252.59;;;23.90;100.00
56944;BME280;42848;42.524;12.052;2022-08-19T11:51:24;96240.97;;;23.41;100.00
56944;BME280;42848;42.524;12.052;2022-08-19T11:53:51;96240.13;;;22.73;100.00
56944;BME280;42848;42.524;12.052;2022-08-19T11:56:18;96246.84;;;23.13;100.00
56944;BME280;42848;42.524;12.052;2022-08-19T11:58:45;96243.19;;;23.23;100.00
56944;BME280;42848;42.524;12.052;2022-08-19T12:01:13;96244.00;;;23.50;100.00
56944;BME280;42848;42.524;12.052;2022-08-19T12:03:41;96233.22;;;23.60;100.00
56944;BME280;42848;42.524;12.052;2022-08-19T12:06:13;96234.22;;;23.73;100.00
56944;BME280;42848;42.524;12.052;2022-08-19T12:08:41;96223.41;;;23.82;100.00
56944;BME280;42848;42.524;12.052;2022-08-19T12:11:07;96210.94;;;23.94;100.00
56944;BME280;42848;42.524;12.052;2022-08-19T12:13:33;96208.09;;;24.24;100.00
56944;BME280;42848;42.524;12.052;2022-08-19T12:16:00;96214.50;;;24.45;100.00
56944;BME280;42848;42.524;12.052;2022-08-19T12:18:30;96212.09;;;24.20;100.00
56944;BME280;42848;42.524;12.052;2022-08-19T12:20:56;96202.72;;;24.60;100.00
56944;BME280;42848;42.524;12.052;2022-08-19T12:23:21;96200.63;;;24.45;100.00
56944;BME280;42848;42.524;12.052;2022-08-19T12:25:49;96195.84;;;24.45;100.00
56944;BME280;42848;42.524;12.052;2022-08-19T12:28:19;96193.03;;;24.68;100.00
56944;BME280;42848;42.524;12.052;2022-08-19T12:30:47;96184.22;;;24.74;100.00
56944;BME280;42848;42.524;12.052;2022-08-19T12:33:13;96196.66;;;24.65;100.00
56944;BME280;42848;42.524;12.052;2022-08-19T12:35:41;96187.50;;;24.22;100.00
56944;BME280;42848;42.524;12.052;2022-08-19T12:38:10;96186.44;;;24.16;100.00
56944;BME280;42848;42.524;12.052;2022-08-19T12:40:36;96199.25;;;24.29;100.00
56944;BME280;42848;42.524;12.052;2022-08-19T12:43:04;96208.09;;;24.24;100.00
56944;BME280;42848;42.524;12.052;2022-08-19T12:45:31;96215.47;;;24.31;100.00
56944;BME280;42848;42.524;12.052;2022-08-19T12:47:56;96216.75;;;23.76;100.00
56944;BME280;42848;42.524;12.052;2022-08-19T12:50:22;96214.50;;;23.94;100.00
56944;BME280;42848;42.524;12.052;2022-08-19T12:52:48;96225.44;;;23.78;100.00
56944;BME280;42848;42.524;12.052;2022-08-19T12:55:15;96247.22;;;24.03;100.00
56944;BME280;42848;42.524;12.052;2022-08-19T12:57:44;96248.16;;;23.96;100.00
56944;BME280;42848;42.524;12.052;2022-08-19T13:00:14;96242.59;;;23.96;100.00
56944;BME280;42848;42.524;12.052;2022-08-19T13:02:45;96229.47;;;24.00;100.00